Time;durP1;ratioP1;P1;durP2;ratioP2;P2;SDS_P1;SDS_P2;PMS_P1;PMS_P2;Temp;Humidity;BMP_temperature;BMP_pressure;BME280_temperature;BME280_humidity;BME280_pressure;Samples;Min_cycle;Max_cycle;Signal;HPM_P1;HPM_P2
2022/05/26 00:01:20;;;;;;;4.10;3.70;;;;;;;18.00;48.24;99293.36;1667869;85;21052;-77
2022/05/26 00:03:47;;;;;;;3.25;2.55;;;;;;;17.95;48.42;99283.41;1691266;84;21005;-77
2022/05/26 00:06:16;;;;;;;3.17;2.87;;;;;;;17.94;48.91;99283.73;1688048;84;21144;-77
2022/05/26 00:08:42;;;;;;;7.92;3.17;;;;;;;17.90;49.23;99277.27;1656066;86;21008;-78
2022/05/26 00:11:13;;;;;;;9.58;2.90;;;;;;;17.84;48.99;99277.39;1667103;85;20949;-77
2022/05/26 00:13:40;;;;;;;4.70;3.42;;;;;;;17.81;49.18;99261.69;1688661;84;21065;-82
2022/05/26 00:16:07;;;;;;;7.08;4.58;;;;;;;17.79;49.13;99263.13;1690272;84;21012;-84
2022/05/26 00:18:34;;;;;;;8.48;3.50;;;;;;;17.79;49.16;99254.97;1667138;85;20987;-84
2022/05/26 00:21:02;;;;;;;4.70;2.72;;;;;;;17.79;49.01;99254.97;1667047;86;21030;-76
2022/05/26 00:23:29;;;;;;;4.03;2.92;;;;;;;17.79;49.11;99254.38;1650854;86;21113;-76
2022/05/26 00:25:56;;;;;;;3.83;2.90;;;;;;;17.77;49.53;99249.82;1675536;84;21042;-76
2022/05/26 00:28:22;;;;;;;4.22;2.95;;;;;;;17.75;49.88;99249.87;1674616;84;21057;-75
2022/05/26 00:30:49;;;;;;;5.55;3.52;;;;;;;17.72;50.40;99244.50;1682339;83;21055;-77
2022/05/26 00:33:16;;;;;;;3.75;3.27;;;;;;;17.72;50.83;99244.50;1709011;83;21565;-84
2022/05/26 00:35:43;;;;;;;5.22;3.35;;;;;;;17.68;51.30;99234.55;1705680;83;21099;-82
2022/05/26 00:38:12;;;;;;;3.30;3.00;;;;;;;17.59;52.01;99218.71;1682067;84;21521;-83
2022/05/26 00:40:39;;;;;;;3.37;3.08;;;;;;;17.51;52.45;99217.48;1689744;84;21064;-80
2022/05/26 00:43:06;;;;;;;5.20;3.10;;;;;;;17.48;53.00;99216.74;1665767;85;21089;-81
2022/05/26 00:45:39;;;;;;;4.67;3.00;;;;;;;17.47;53.21;99225.20;1610039;83;21002;-81
2022/05/26 00:48:09;;;;;;;6.53;3.20;;;;;;;17.43;53.46;99221.74;1610226;89;21094;-77
2022/05/26 00:50:41;;;;;;;5.30;3.25;;;;;;;17.41;53.68;99216.34;1608928;87;21053;-79
2022/05/26 00:53:15;;;;;;;;;;;;;;;17.41;53.90;99214.44;1597924;87;21072;-78
2022/05/26 00:55:54;;;;;;;5.67;3.87;;;;;;;17.42;53.97;99223.39;1624152;87;21168;-77
2022/05/26 00:58:28;;;;;;;9.23;3.40;;;;;;;17.40;54.25;99215.56;1603633;89;21082;-76
2022/05/26 01:00:57;;;;;;;7.83;4.00;;;;;;;17.38;54.37;99208.81;1604866;88;21092;-83
2022/05/26 01:03:35;;;;;;;4.08;2.90;;;;;;;17.39;54.31;99203.08;1611979;88;21027;-79
2022/05/26 01:06:19;;;;;;;5.35;3.58;;;;;;;17.39;54.40;99201.72;1631384;88;20960;-85
2022/05/26 01:08:58;;;;;;;4.80;3.75;;;;;;;17.41;54.47;99193.23;1610975;88;21212;-90
2022/05/26 01:11:26;;;;;;;4.50;3.40;;;;;;;17.41;54.45;99186.44;1603868;89;20968;-85
2022/05/26 01:14:10;;;;;;;3.05;2.75;;;;;;;17.40;54.52;99185.66;1599441;88;21115;-83
2022/05/26 01:17:25;;;;;;;5.03;2.77;;;;;;;17.40;55.02;99189.74;1594564;90;21030;-85
2022/05/26 01:20:37;;;;;;;5.87;3.17;;;;;;;17.38;55.23;99183.80;1594713;88;21022;-83
2022/05/26 01:23:55;;;;;;;6.58;4.20;;;;;;;17.33;55.67;99181.19;1598371;87;22135;-85
2022/05/26 01:26:51;;;;;;;9.90;4.30;;;;;;;17.30;55.76;99180.45;1584161;89;21088;-87
2022/05/26 01:30:04;;;;;;;4.83;3.33;;;;;;;17.23;56.12;99177.89;1544401;93;21076;-83
2022/05/26 01:32:57;;;;;;;5.47;3.75;;;;;;;17.22;56.11;99173.01;1580329;90;21591;-85
2022/05/26 01:35:41;;;;;;;7.80;3.17;;;;;;;17.24;55.95;99162.64;1542984;90;21101;-82
2022/05/26 01:38:28;;;;;;;6.28;3.27;;;;;;;17.25;56.06;99160.73;1543236;92;21201;-82
2022/05/26 01:41:09;;;;;;;6.95;3.12;;;;;;;17.23;56.27;99154.23;1542953;91;21051;-86
2022/05/26 01:44:13;;;;;;;7.10;3.20;;;;;;;17.22;56.38;99151.27;1551380;91;21229;-87
2022/05/26 01:46:44;;;;;;;5.80;4.03;;;;;;;17.22;56.34;99149.09;1619030;88;21094;-86
2022/05/26 01:49:39;;;;;;;10.63;4.00;;;;;;;17.21;56.25;99151.59;1593510;88;21087;-85
2022/05/26 01:52:19;;;;;;;6.12;2.83;;;;;;;17.20;56.31;99142.63;1617584;87;21273;-84
2022/05/26 01:54:52;;;;;;;14.75;4.20;;;;;;;17.20;56.41;99146.70;1616814;88;21577;-88
2022/05/26 01:57:24;;;;;;;7.28;3.25;;;;;;;17.19;56.38;99135.58;1616941;87;21090;-88
2022/05/26 01:59:58;;;;;;;5.20;3.42;;;;;;;17.21;56.36;99146.96;1639003;87;20967;-87
2022/05/26 02:02:26;;;;;;;;;;;;;;;17.20;56.30;99139.91;1646974;85;21015;-82
2022/05/26 02:04:56;;;;;;;3.67;3.30;;;;;;;17.21;56.10;99138.00;1591843;88;22745;-85
2022/05/26 02:07:54;;;;;;;4.90;3.30;;;;;;;17.22;55.88;99133.59;1617473;88;21591;-85
2022/05/26 02:11:00;;;;;;;11.05;3.17;;;;;;;17.24;55.77;99131.39;1642700;87;21576;-85
2022/05/26 02:14:13;;;;;;;12.80;3.20;;;;;;;17.30;55.39;99133.44;1637235;87;21543;-86
2022/05/26 02:16:49;;;;;;;5.65;3.30;;;;;;;17.34;55.09;99131.70;1616164;88;21099;-86
2022/05/26 02:19:39;;;;;;;11.65;3.10;;;;;;;17.40;54.64;99125.05;1616223;88;21125;-86
2022/05/26 02:22:20;;;;;;;5.55;2.90;;;;;;;17.44;54.36;99125.48;1637752;87;21040;-85
2022/05/26 02:24:59;;;;;;;4.85;2.30;;;;;;;17.50;53.98;99124.80;1618949;86;21583;-85
2022/05/26 02:27:30;;;;;;;3.35;2.50;;;;;;;17.55;53.42;99125.23;1618542;88;21520;-85
2022/05/26 02:29:56;;;;;;;9.15;2.60;;;;;;;17.60;53.08;99115.05;1615313;88;21524;-85
2022/05/26 02:32:44;;;;;;;3.10;2.42;;;;;;;17.67;52.85;99114.62;1616133;88;21273;-82
2022/05/26 02:35:22;;;;;;;5.10;2.95;;;;;;;17.73;52.49;99118.83;1620398;87;20982;-83
2022/05/26 02:37:52;;;;;;;3.02;2.75;;;;;;;17.78;52.08;99109.18;1645480;87;21642;-83
2022/05/26 02:40:19;;;;;;;9.10;3.60;;;;;;;17.83;51.55;99111.22;1645548;87;20971;-85
2022/05/26 02:42:55;;;;;;;5.45;2.47;;;;;;;17.90;51.28;99112.67;1634897;87;21055;-89
2022/05/26 02:45:56;;;;;;;4.65;2.40;;;;;;;17.93;51.14;99104.70;1618590;86;21276;-91
2022/05/26 02:49:04;;;;;;;2.77;2.27;;;;;;;17.97;50.92;99102.16;1608794;87;21565;-90
2022/05/26 02:51:52;;;;;;;4.72;2.20;;;;;;;18.01;50.68;99101.22;1633930;87;21018;-90
2022/05/26 02:54:58;;;;;;;8.33;2.65;;;;;;;18.04;50.54;99106.58;1616569;87;21056;-91
2022/05/26 02:57:52;;;;;;;9.40;2.83;;;;;;;18.04;50.47;99109.30;1604753;86;21489;-91
2022/05/26 03:00:36;;;;;;;9.05;2.67;;;;;;;18.05;50.41;99109.00;1603733;88;21039;-91
2022/05/26 03:03:14;;;;;;;3.05;2.45;;;;;;;18.07;50.27;99116.30;1576874;87;21133;-88
2022/05/26 03:06:06;;;;;;;3.27;3.00;;;;;;;18.07;50.27;99116.30;1627803;87;21123;-91
2022/05/26 03:08:36;;;;;;;5.60;3.08;;;;;;;18.09;50.24;99112.69;1606594;86;21091;-81
2022/05/26 03:11:13;;;;;;;5.08;2.25;;;;;;;18.10;50.28;99114.86;1586803;89;21067;-83
2022/05/26 03:13:40;;;;;;;5.85;2.55;;;;;;;18.10;50.14;99106.69;1579294;90;21252;-79
2022/05/26 03:16:07;;;;;;;7.87;2.62;;;;;;;18.10;50.17;99106.14;1608930;89;21042;-81
2022/05/26 03:18:33;;;;;;;3.10;2.47;;;;;;;18.09;50.28;99097.72;1605020;89;21000;-81
2022/05/26 03:21:01;;;;;;;5.72;2.40;;;;;;;18.10;50.83;99106.69;1628058;87;21039;-80
2022/05/26 03:23:28;;;;;;;5.70;2.70;;;;;;;18.09;51.48;99110.52;1626429;87;21064;-81
2022/05/26 03:25:57;;;;;;;6.40;2.60;;;;;;;18.06;52.35;99111.16;1608701;89;21244;-83
2022/05/26 03:28:25;;;;;;;8.93;2.45;;;;;;;18.03;53.15;99100.91;1608618;89;21072;-79
2022/05/26 03:30:52;;;;;;;4.83;2.50;;;;;;;17.98;54.04;99096.41;1629379;87;21040;-81
2022/05/26 03:33:19;;;;;;;6.72;3.12;;;;;;;17.92;54.90;99101.73;1607925;87;21074;-82
2022/05/26 03:41:19;;;;;;;5.97;2.75;;;;;;;17.71;56.66;99081.60;1608142;89;21095;-83
2022/05/26 03:43:49;;;;;;;3.83;2.70;;;;;;;17.64;56.89;99075.82;1609269;87;21014;-83
2022/05/26 03:46:16;;;;;;;6.40;3.55;;;;;;;17.58;57.19;99078.37;1616935;88;21037;-81
2022/05/26 03:48:43;;;;;;;8.63;2.87;;;;;;;17.49;57.52;99076.16;1627675;87;20976;-88
2022/05/26 03:51:09;;;;;;;3.55;2.58;;;;;;;17.42;57.71;99088.27;1645260;85;21114;-74
2022/05/26 03:53:36;;;;;;;9.25;2.80;;;;;;;17.38;58.13;99094.64;1628029;87;21051;-90
2022/05/26 03:56:04;;;;;;;3.87;2.37;;;;;;;17.29;59.44;99112.25;1618652;88;21095;-88
2022/05/26 03:58:32;;;;;;;5.72;2.50;;;;;;;17.19;60.46;99096.73;1591719;88;21103;-90
2022/05/26 04:01:07;;;;;;;6.78;3.10;;;;;;;17.06;61.76;99094.87;1616089;87;21010;-86
2022/05/26 04:03:34;;;;;;;14.43;3.77;;;;;;;16.89;63.27;99103.10;1622482;87;21259;-89
2022/05/26 04:06:01;;;;;;;3.45;2.98;;;;;;;16.73;64.75;99104.56;1638755;87;21028;-90
2022/05/26 04:08:27;;;;;;;5.08;4.08;;;;;;;16.59;66.17;99102.42;1635805;87;21019;-91
2022/05/26 04:10:54;;;;;;;3.17;2.92;;;;;;;16.43;67.14;99089.67;1630092;86;21514;-84
2022/05/26 04:13:21;;;;;;;4.60;3.17;;;;;;;16.31;68.05;99081.22;1630160;88;21059;-82
2022/05/26 04:15:47;;;;;;;5.47;3.75;;;;;;;16.20;69.00;99091.23;1618933;87;21225;-82
2022/05/26 04:18:14;;;;;;;6.92;4.83;;;;;;;16.05;70.51;99092.33;1622843;88;21051;-83
2022/05/26 04:20:41;;;;;;;8.45;4.55;;;;;;;15.93;70.90;99097.42;1630377;86;21120;-89
2022/05/26 04:23:09;;;;;;;8.80;5.78;;;;;;;15.86;71.84;99105.97;1630888;88;21513;-87
2022/05/26 04:25:36;;;;;;;7.80;5.60;;;;;;;15.81;72.91;99110.67;1624161;88;21035;-86
2022/05/26 04:28:03;;;;;;;9.00;6.30;;;;;;;15.73;74.25;99091.03;1626617;86;21812;-84
2022/05/26 04:30:30;;;;;;;7.05;5.03;;;;;;;15.62;75.77;99095.27;1578789;91;21063;-84
2022/05/26 04:32:57;;;;;;;10.60;5.75;;;;;;;15.58;76.89;99087.48;1581889;90;21024;-82
2022/05/26 04:35:23;;;;;;;9.10;5.20;;;;;;;15.51;77.68;99093.83;1640552;87;21147;-83
2022/05/26 04:37:50;;;;;;;5.35;4.28;;;;;;;15.47;78.67;99095.49;1638715;87;21039;-84
2022/05/26 04:40:17;;;;;;;4.80;3.47;;;;;;;15.38;79.61;99101.34;1610220;89;21265;-83
2022/05/26 04:42:43;;;;;;;4.95;3.42;;;;;;;15.31;80.44;99091.41;1619033;87;21088;-81
2022/05/26 04:45:13;;;;;;;11.73;3.85;;;;;;;15.24;81.11;99095.86;1636707;87;20945;-84
2022/05/26 04:47:40;;;;;;;9.15;4.83;;;;;;;15.19;81.89;99105.42;1614825;87;21018;-83
2022/05/26 04:50:10;;;;;;;7.85;3.42;;;;;;;15.16;82.41;99105.99;1612060;89;21130;-83
2022/05/26 04:52:38;;;;;;;6.20;3.20;;;;;;;15.10;83.43;99111.80;1612185;87;22172;-80
2022/05/26 04:55:06;;;;;;;7.58;3.98;;;;;;;15.03;84.30;99127.05;1612015;88;21037;-80
2022/05/26 04:57:33;;;;;;;5.87;3.37;;;;;;;14.94;85.13;99121.23;1614970;87;21071;-90
2022/05/26 04:59:59;;;;;;;6.00;3.42;;;;;;;14.86;86.12;99110.52;1612220;87;20982;-94
2022/05/26 05:02:26;;;;;;;5.65;3.45;;;;;;;14.78;87.03;99105.19;1612216;88;21046;-89
2022/05/26 05:04:53;;;;;;;7.12;3.75;;;;;;;14.75;87.62;99113.09;1612391;89;21158;-88
2022/05/26 05:07:21;;;;;;;5.03;3.85;;;;;;;14.73;88.43;99100.38;1608839;89;20952;-88
2022/05/26 05:09:48;;;;;;;4.60;4.03;;;;;;;14.70;89.31;99090.15;1607487;89;21064;-88
2022/05/26 05:12:20;;;;;;;6.22;3.92;;;;;;;14.68;90.23;99097.20;1636076;87;21490;-91
2022/05/26 05:14:49;;;;;;;5.25;3.83;;;;;;;14.62;90.63;99098.38;1622377;87;21495;-86
2022/05/26 05:17:19;;;;;;;4.78;3.98;;;;;;;14.57;91.29;99102.50;1611940;89;21200;-86
2022/05/26 05:19:46;;;;;;;4.62;3.98;;;;;;;14.53;92.36;99105.51;1611121;87;21541;-81
2022/05/26 05:22:28;;;;;;;5.20;4.20;;;;;;;14.50;92.58;99097.17;1610562;87;20973;-84
2022/05/26 05:25:00;;;;;;;6.85;5.10;;;;;;;14.48;93.25;99106.95;1611912;89;21457;-88
2022/05/26 05:27:50;;;;;;;7.87;4.10;;;;;;;14.40;94.44;99100.27;1608642;87;21086;-87
2022/05/26 05:30:21;;;;;;;6.95;4.65;;;;;;;14.40;94.61;99107.57;1607487;89;21839;-85
2022/05/26 05:32:52;;;;;;;7.90;4.08;;;;;;;14.43;95.03;99106.20;1607580;89;21083;-84
2022/05/26 05:35:23;;;;;;;9.63;4.80;;;;;;;14.40;95.41;99113.80;1610068;87;21542;-85
2022/05/26 05:37:50;;;;;;;5.37;3.83;;;;;;;14.35;96.35;99109.77;1611743;87;21044;-83
2022/05/26 05:40:17;;;;;;;5.22;3.92;;;;;;;14.32;96.69;99112.24;1611365;87;21085;-84
2022/05/26 05:42:44;;;;;;;9.63;5.05;;;;;;;14.32;97.09;99116.30;1627241;87;21878;-85
2022/05/26 05:45:12;;;;;;;4.20;3.77;;;;;;;14.29;97.35;99112.25;1611098;87;21055;-81
2022/05/26 05:47:40;;;;;;;4.45;4.03;;;;;;;14.25;97.64;99117.98;1608793;88;21012;-83
2022/05/26 05:50:07;;;;;;;6.37;4.33;;;;;;;14.23;97.97;99124.25;1642147;87;21083;-83
2022/05/26 05:52:34;;;;;;;8.25;4.58;;;;;;;14.20;98.84;99109.93;1641774;87;21556;-83
2022/05/26 05:55:00;;;;;;;6.90;4.30;;;;;;;14.21;99.16;99111.55;1609680;87;21153;-81
2022/05/26 05:57:27;;;;;;;8.30;5.08;;;;;;;14.25;99.44;99123.94;1653019;86;20959;-79
2022/05/26 05:59:54;;;;;;;8.30;4.37;;;;;;;14.25;99.57;99118.53;1668993;84;21075;-82
2022/05/26 06:02:21;;;;;;;13.70;4.15;;;;;;;14.26;99.78;99115.55;1669082;84;21124;-81
2022/05/26 06:04:48;;;;;;;8.98;5.15;;;;;;;14.27;100.00;99121.23;1662871;86;21611;-87
2022/05/26 06:07:16;;;;;;;5.62;5.15;;;;;;;14.28;100.00;99122.84;1642076;87;21209;-87
2022/05/26 06:09:44;;;;;;;10.85;4.80;;;;;;;14.32;100.00;99121.72;1610192;89;21080;-87
2022/05/26 06:12:11;;;;;;;6.85;4.25;;;;;;;14.36;100.00;99120.07;1639711;87;21108;-86
2022/05/26 06:14:38;;;;;;;8.88;4.53;;;;;;;14.41;100.00;99121.36;1640524;86;21003;-82
2022/05/26 06:17:07;;;;;;;7.10;5.70;;;;;;;14.44;100.00;99125.37;1578855;91;21588;-79
2022/05/26 06:19:36;;;;;;;8.23;4.92;;;;;;;14.45;100.00;99122.94;1594626;88;21128;-81
2022/05/26 06:22:15;;;;;;;7.15;4.78;;;;;;;14.45;100.00;99127.80;1641627;87;21064;-79
2022/05/26 06:24:42;;;;;;;6.42;5.03;;;;;;;14.46;100.00;99131.32;1641227;85;21202;-80
2022/05/26 06:29:59;;;;;;;5.60;4.70;;;;;;;14.46;100.00;99146.20;1610488;89;21139;-81
2022/05/26 06:38:00;;;;;;;7.05;4.17;;;;;;;14.51;100.00;99146.95;1638235;86;21561;-85
2022/05/26 06:40:31;;;;;;;5.20;3.62;;;;;;;14.54;100.00;99146.36;1638157;87;21031;-85
2022/05/26 06:42:59;;;;;;;5.55;3.35;;;;;;;14.56;100.00;99156.36;1638656;87;21161;-85
2022/05/26 06:45:26;;;;;;;3.80;3.22;;;;;;;14.61;100.00;99166.32;1638688;86;21056;-89
2022/05/26 06:47:52;;;;;;;4.33;3.60;;;;;;;14.62;100.00;99151.70;1638121;87;21064;-91
2022/05/26 06:50:19;;;;;;;3.20;2.60;;;;;;;14.64;100.00;99156.26;1630403;86;21053;-84
2022/05/26 06:52:46;;;;;;;3.08;2.77;;;;;;;14.67;100.00;99161.12;1638275;85;20997;-82
2022/05/26 06:55:14;;;;;;;7.17;3.52;;;;;;;14.69;100.00;99146.73;1637398;87;21066;-77
2022/05/26 06:57:41;;;;;;;2.60;2.40;;;;;;;14.73;100.00;99139.63;1634988;86;21197;-85
2022/05/26 07:00:09;;;;;;;4.37;3.20;;;;;;;14.77;100.00;99150.16;1639656;86;21072;-86
2022/05/26 07:02:38;;;;;;;3.55;2.98;;;;;;;14.77;100.00;99147.45;1639982;87;21107;-85
2022/05/26 07:05:05;;;;;;;3.85;2.45;;;;;;;14.78;100.00;99157.97;1629460;87;21016;-93
2022/05/26 07:07:34;;;;;;;2.90;2.70;;;;;;;14.81;100.00;99159.31;1609343;87;21118;-89
2022/05/26 07:10:02;;;;;;;1.87;1.77;;;;;;;14.78;100.00;99162.03;1628193;87;21157;-81
2022/05/26 07:12:29;;;;;;;2.37;2.17;;;;;;;14.75;100.00;99163.98;1616146;87;21028;-82
2022/05/26 07:14:56;;;;;;;2.40;2.20;;;;;;;14.73;100.00;99162.64;1633402;87;21050;-82
2022/05/26 07:17:23;;;;;;;3.87;2.27;;;;;;;14.74;100.00;99166.97;1628979;87;21162;-80
2022/05/26 07:19:50;;;;;;;2.67;2.47;;;;;;;14.73;100.00;99181.05;1638403;87;21065;-82
2022/05/26 07:22:16;;;;;;;2.47;2.27;;;;;;;14.72;100.00;99194.31;1631133;85;21361;-77
2022/05/26 07:24:44;;;;;;;2.17;1.98;;;;;;;14.69;100.00;99216.56;1619306;87;21048;-84
2022/05/26 07:27:10;;;;;;;4.60;2.77;;;;;;;14.60;100.00;99204.76;1638051;86;21125;-81
2022/05/26 07:29:36;;;;;;;2.67;2.15;;;;;;;14.56;100.00;99190.73;1622033;85;21041;-80
2022/05/26 07:32:06;;;;;;;1.85;1.70;;;;;;;14.53;100.00;99188.05;1615638;87;21085;-82
2022/05/26 07:34:32;;;;;;;2.47;2.27;;;;;;;14.51;100.00;99205.13;1612570;87;22117;-79
2022/05/26 07:42:33;;;;;;;3.12;2.83;;;;;;;14.28;100.00;99201.28;1638078;87;21544;-83
2022/05/26 07:44:59;;;;;;;2.50;2.30;;;;;;;14.20;100.00;99210.55;1635711;86;21111;-84
2022/05/26 07:47:27;;;;;;;2.45;2.25;;;;;;;14.16;100.00;99217.62;1598219;87;22362;-82
2022/05/26 07:49:54;;;;;;;2.90;2.70;;;;;;;14.13;100.00;99210.08;1646096;85;20905;-75
2022/05/26 07:52:21;;;;;;;3.20;2.90;;;;;;;14.09;100.00;99218.51;1644069;85;21493;-80
2022/05/26 07:54:48;;;;;;;2.58;2.37;;;;;;;14.06;100.00;99215.81;1645367;87;21085;-83
2022/05/26 07:57:26;;;;;;;2.50;2.25;;;;;;;14.02;100.00;99224.23;1604354;87;21044;-81
2022/05/26 07:59:54;;;;;;;2.52;2.22;;;;;;;14.01;100.00;99226.67;1616974;87;21160;-82
2022/05/26 08:02:21;;;;;;;2.20;2.00;;;;;;;14.00;100.00;99254.02;1603830;89;21028;-82
2022/05/26 08:04:48;;;;;;;2.20;2.10;;;;;;;13.97;100.00;99219.68;1631893;87;22196;-87
2022/05/26 08:07:15;;;;;;;2.70;2.50;;;;;;;14.00;100.00;99218.86;1613211;87;21044;-86
2022/05/26 08:09:42;;;;;;;2.47;2.27;;;;;;;14.02;100.00;99224.78;1609120;88;20965;-87
2022/05/26 08:12:12;;;;;;;2.33;2.12;;;;;;;14.07;100.00;99225.55;1619222;88;21182;-90
2022/05/26 08:14:39;;;;;;;2.40;2.20;;;;;;;14.15;100.00;99237.09;1602341;87;21087;-94
2022/05/26 08:17:06;;;;;;;2.90;2.40;;;;;;;14.24;100.00;99226.48;1619296;88;21155;-91
2022/05/26 08:19:32;;;;;;;3.50;2.25;;;;;;;14.33;100.00;99232.35;1620030;88;21068;-92
2022/05/26 08:21:59;;;;;;;1.75;1.65;;;;;;;14.39;100.00;99227.16;1619794;88;21110;-84
2022/05/26 08:24:26;;;;;;;3.22;2.27;;;;;;;14.44;98.35;99262.83;1579330;89;21269;-84
2022/05/26 08:26:53;;;;;;;2.17;1.98;;;;;;;14.45;96.27;99259.03;1578914;90;21011;-94
2022/05/26 08:29:19;;;;;;;1.98;1.80;;;;;;;14.49;96.20;99266.84;1594068;89;21358;-88
2022/05/26 08:31:46;;;;;;;2.10;1.92;;;;;;;14.53;95.59;99286.03;1594132;89;21507;-90
2022/05/26 08:34:12;;;;;;;2.25;2.08;;;;;;;14.54;93.43;99255.16;1580401;90;21069;-87
2022/05/26 08:36:39;;;;;;;3.25;1.98;;;;;;;14.56;91.07;99274.63;1580217;90;21669;-79
2022/05/26 08:39:06;;;;;;;3.50;2.00;;;;;;;14.61;90.38;99258.34;1565834;90;21030;-78
2022/05/26 08:41:39;;;;;;;1.77;1.67;;;;;;;14.63;88.75;99263.72;1580999;90;21481;-77
2022/05/26 08:44:32;;;;;;;3.60;1.50;;;;;;;14.68;88.76;99264.20;1575715;88;21033;-76
2022/05/26 08:47:10;;;;;;;1.87;1.62;;;;;;;14.75;88.02;99283.09;1597725;89;21071;-78
2022/05/26 08:50:00;;;;;;;2.17;1.42;;;;;;;14.80;84.28;99309.30;1620664;88;21589;-79
2022/05/26 08:52:49;;;;;;;1.95;1.45;;;;;;;14.81;82.90;99298.20;1612992;89;21114;-78
2022/05/26 08:55:19;;;;;;;3.22;1.20;;;;;;;14.79;78.50;99310.39;1602684;89;21144;-77
2022/05/26 08:58:17;;;;;;;1.30;1.15;;;;;;;14.81;78.32;99313.63;1612907;88;21139;-78
2022/05/26 09:00:47;;;;;;;1.17;1.17;;;;;;;14.85;76.59;99293.01;1636684;87;21619;-83
2022/05/26 09:03:27;;;;;;;1.32;1.20;;;;;;;14.92;77.69;99309.70;1635806;86;21170;-85
2022/05/26 09:06:06;;;;;;;1.35;1.25;;;;;;;14.99;77.92;99292.58;1637528;87;21163;-82
2022/05/26 09:14:38;;;;;;;1.52;1.42;;;;;;;15.21;76.11;99275.78;1632985;86;21090;-76
2022/05/26 09:17:10;;;;;;;1.55;1.40;;;;;;;15.30;75.43;99290.87;1590376;89;21253;-78
2022/05/26 09:19:49;;;;;;;1.42;1.35;;;;;;;15.34;74.74;99267.51;1637067;86;21111;-79
2022/05/26 09:22:45;;;;;;;1.60;1.50;;;;;;;15.39;75.21;99290.48;1628051;86;21520;-79
2022/05/26 09:25:27;;;;;;;3.20;1.10;;;;;;;15.45;74.48;99317.75;1634316;86;21012;-80
2022/05/26 09:27:53;;;;;;;2.85;2.15;;;;;;;15.53;73.90;99291.40;1637518;86;21595;-82
2022/05/26 09:30:25;;;;;;;1.35;1.20;;;;;;;15.61;72.66;99286.13;1642932;86;21404;-80
2022/05/26 09:32:52;;;;;;;1.83;1.30;;;;;;;15.71;72.97;99298.73;1648079;86;21118;-81
2022/05/26 09:35:25;;;;;;;2.30;1.98;;;;;;;15.82;72.91;99273.09;1641480;86;21626;-77
2022/05/26 09:37:55;;;;;;;;;;;;;;;15.89;72.29;99281.64;1642186;86;21564;-81
2022/05/26 09:40:30;;;;;;;1.92;1.67;;;;;;;15.95;71.89;99310.86;1637688;87;20189;-79
2022/05/26 09:43:05;;;;;;;5.65;1.85;;;;;;;15.98;71.43;99297.50;1636925;86;21313;-79
2022/05/26 09:45:44;;;;;;;4.10;1.75;;;;;;;16.00;68.88;99276.33;1633781;87;21533;-79
2022/05/26 09:48:29;;;;;;;1.87;1.15;;;;;;;16.06;69.22;99290.63;1582666;89;21039;-77
2022/05/26 09:51:33;;;;;;;1.35;1.05;;;;;;;16.11;67.12;99311.67;1611509;89;21127;-79
2022/05/26 09:53:56;;;;;;;3.77;1.50;;;;;;;16.21;66.78;99288.22;1596763;89;21110;-75
2022/05/26 09:56:28;;;;;;;3.02;1.45;;;;;;;16.30;66.37;99327.14;1613016;87;21983;-76
2022/05/26 09:58:56;;;;;;;1.40;1.30;;;;;;;16.38;65.93;99315.05;1631202;86;20987;-78
2022/05/26 10:01:31;;;;;;;1.45;1.35;;;;;;;16.45;64.68;99269.31;1637604;87;21702;-80
2022/05/26 10:04:26;;;;;;;2.60;1.85;;;;;;;16.51;65.01;99270.84;1578472;90;21100;-76
2022/05/26 10:07:32;;;;;;;4.12;1.67;;;;;;;16.63;65.67;99270.95;1638509;86;21071;-80
2022/05/26 10:10:36;;;;;;;1.55;1.45;;;;;;;16.74;65.91;99267.73;1636311;87;21253;-80
2022/05/26 10:13:26;;;;;;;1.60;1.50;;;;;;;16.89;64.98;99262.01;1639287;86;21006;-82
2022/05/26 10:16:10;;;;;;;3.92;1.60;;;;;;;17.06;64.18;99270.12;1641259;86;21617;-81
2022/05/26 10:19:00;;;;;;;;;;;;;;;17.20;64.21;99270.91;1638981;87;20978;-81
2022/05/26 10:21:40;;;;;;;3.98;1.62;;;;;;;17.34;64.26;99282.58;1636333;87;20195;-86
2022/05/26 10:24:45;;;;;;;2.25;1.67;;;;;;;17.50;63.95;99287.95;1636614;87;21770;-89
2022/05/26 10:28:01;;;;;;;1.60;1.30;;;;;;;17.63;62.03;99291.22;1611516;89;21044;-83
2022/05/26 10:31:02;;;;;;;1.45;1.35;;;;;;;17.79;60.35;99277.51;1609542;87;21065;-80
2022/05/26 10:33:54;;;;;;;3.92;1.60;;;;;;;17.95;59.30;99279.88;1609437;89;21627;-88
2022/05/26 10:36:57;;;;;;;3.30;1.52;;;;;;;18.05;58.26;99275.00;1636387;87;21119;-85
2022/05/26 10:39:38;;;;;;;2.42;2.08;;;;;;;18.13;58.01;99279.70;1664114;86;26902;-81
2022/05/26 10:42:16;;;;;;;1.65;1.40;;;;;;;18.22;56.49;99287.36;1633735;87;21589;-85
2022/05/26 10:45:09;;;;;;;3.30;1.30;;;;;;;18.24;55.99;99285.14;1640305;87;21620;-83
2022/05/26 10:48:07;;;;;;;1.67;1.30;;;;;;;18.27;55.62;99294.63;1625925;85;21536;-84
2022/05/26 10:50:53;;;;;;;3.62;1.67;;;;;;;18.27;56.13;99274.20;1638943;86;21148;-83
2022/05/26 10:53:51;;;;;;;2.55;1.72;;;;;;;18.40;56.63;99277.41;1633652;86;21148;-79
2022/05/26 10:56:39;;;;;;;2.00;1.85;;;;;;;18.55;54.58;99287.95;1626478;86;21092;-77
2022/05/26 10:59:30;;;;;;;1.40;1.30;;;;;;;18.63;53.96;99305.44;1631618;86;21024;-79
2022/05/26 11:02:04;;;;;;;4.75;1.57;;;;;;;18.71;53.28;99293.22;1628461;88;21004;-74
2022/05/26 11:04:57;;;;;;;2.02;1.80;;;;;;;18.70;52.72;99279.94;1628536;88;21092;-77
2022/05/26 11:07:56;;;;;;;3.58;2.08;;;;;;;18.76;52.78;99288.75;1645789;86;21168;-79
2022/05/26 11:10:31;;;;;;;2.75;1.60;;;;;;;18.85;51.93;99284.17;1602581;89;20979;-78
2022/05/26 11:13:26;;;;;;;3.52;1.85;;;;;;;18.95;50.69;99321.47;1603400;88;21042;-76
2022/05/26 11:19:42;;;;;;;2.37;1.65;;;;;;;19.17;50.03;99304.25;1602827;89;21138;-83
2022/05/26 11:22:11;;;;;;;2.02;1.20;;;;;;;19.30;49.08;99306.61;1570664;91;22565;-88
2022/05/26 11:24:38;;;;;;;3.25;1.70;;;;;;;19.35;46.86;99314.64;1593916;90;21155;-77
2022/05/26 11:27:53;;;;;;;1.62;1.20;;;;;;;19.37;45.57;99284.59;1596074;88;21601;-78
2022/05/26 11:36:17;;;;;;;1.20;1.00;;;;;;;19.72;44.62;99290.91;1618742;88;21268;-83
2022/05/26 11:38:47;;;;;;;3.30;1.25;;;;;;;19.80;44.82;99311.97;1618622;87;21052;-82
2022/05/26 11:41:35;;;;;;;6.03;1.40;;;;;;;19.84;45.26;99310.20;1618357;88;21516;-86
2022/05/26 11:44:10;;;;;;;2.62;1.30;;;;;;;19.86;45.42;99304.40;1578768;90;21603;-87
2022/05/26 11:46:52;;;;;;;1.92;1.15;;;;;;;19.82;45.31;99306.97;1578012;89;21081;-92
2022/05/26 11:49:47;;;;;;;2.98;1.42;;;;;;;19.81;45.54;99299.09;1601503;88;21195;-81
2022/05/26 11:52:39;;;;;;;7.10;1.77;;;;;;;19.80;46.04;99313.89;1574907;90;21075;-82
2022/05/26 11:55:17;;;;;;;4.20;1.37;;;;;;;19.79;45.57;99297.27;1621937;88;21558;-79
2022/05/26 11:57:53;;;;;;;1.50;1.40;;;;;;;19.77;46.11;99303.59;1555688;92;21032;-81
2022/05/26 12:00:38;;;;;;;1.90;1.40;;;;;;;19.79;45.75;99289.08;1580797;90;21031;-78
2022/05/26 12:03:27;;;;;;;2.17;1.40;;;;;;;19.83;45.96;99291.41;1560831;92;21865;-84
2022/05/26 12:06:13;;;;;;;1.95;1.22;;;;;;;19.81;45.70;99297.17;1546004;90;21097;-82
2022/05/26 12:08:51;;;;;;;7.97;1.20;;;;;;;19.84;45.91;99316.22;1585229;90;21078;-78
2022/05/26 12:11:22;;;;;;;3.80;1.47;;;;;;;19.84;45.92;99295.75;1592536;89;21112;-79
2022/05/26 12:14:02;;;;;;;3.87;1.32;;;;;;;19.86;45.94;99309.86;1620548;88;21051;-78
2022/05/26 12:16:29;;;;;;;1.50;1.40;;;;;;;19.86;45.28;99301.11;1622350;87;21224;-89
2022/05/26 12:19:04;;;;;;;4.45;2.37;;;;;;;19.85;44.70;99322.73;1614944;87;21027;-81
2022/05/26 12:21:47;;;;;;;2.22;1.15;;;;;;;19.85;44.72;99289.17;1623169;88;21111;-81
2022/05/26 12:24:38;;;;;;;2.87;1.30;;;;;;;19.85;44.82;99296.00;1623165;88;21853;-81
2022/05/26 12:27:04;;;;;;;1.72;1.20;;;;;;;19.87;44.67;99317.73;1623551;88;21036;-80
2022/05/26 12:29:56;;;;;;;1.80;1.40;;;;;;;19.90;44.77;99307.53;1617630;88;21132;-82
2022/05/26 12:32:26;;;;;;;2.12;1.20;;;;;;;19.96;44.20;99306.81;1602938;87;21545;-75
2022/05/26 12:35:23;;;;;;;1.20;1.10;;;;;;;19.96;44.21;99314.45;1621506;86;21138;-75
2022/05/26 12:38:18;;;;;;;2.50;1.32;;;;;;;20.02;43.80;99335.57;1623151;88;21103;-77
2022/05/26 12:41:13;;;;;;;2.00;1.27;;;;;;;20.07;43.22;99319.59;1586147;90;21091;-77
2022/05/26 12:44:02;;;;;;;4.08;1.30;;;;;;;20.13;43.85;99321.84;1586227;90;21801;-80
2022/05/26 12:46:51;;;;;;;3.62;1.50;;;;;;;20.21;43.62;99302.48;1571827;90;21072;-75